createdAt,value
2019-05-30T00:00:33.851Z,10.95
2019-05-30T00:01:43.808Z,10.86
2019-05-30T00:02:53.993Z,10.86
2019-05-30T00:04:07.169Z,10.79
2019-05-30T00:05:16.878Z,10.71
2019-05-30T00:06:26.585Z,10.71
2019-05-30T00:07:36.535Z,10.65
2019-05-30T00:08:46.607Z,10.62
2019-05-30T00:09:56.695Z,10.65
2019-05-30T00:11:08.103Z,10.61
2019-05-30T00:12:18.059Z,10.59
2019-05-30T00:13:27.767Z,10.49
2019-05-30T00:14:37.715Z,10.58
2019-05-30T00:15:47.684Z,10.53
2019-05-30T00:16:58.559Z,10.41
2019-05-30T00:18:10.103Z,10.41
2019-05-30T00:19:20.051Z,10.39
2019-05-30T00:20:30.044Z,10.41
2019-05-30T00:21:39.999Z,10.38
2019-05-30T00:22:49.952Z,10.24
2019-05-30T00:24:00.601Z,10.2
2019-05-30T00:25:11.859Z,10.28
2019-05-30T00:26:21.571Z,10.06
2019-05-30T00:27:31.032Z,10.12
2019-05-30T00:28:40.981Z,9.97
2019-05-30T00:29:50.931Z,9.99
2019-05-30T00:31:02.482Z,9.99
2019-05-30T00:32:12.727Z,9.91
2019-05-30T00:33:22.671Z,9.85
2019-05-30T00:34:32.729Z,9.87
2019-05-30T00:35:42.659Z,9.88
2019-05-30T00:36:52.364Z,9.82
2019-05-30T00:38:04.553Z,9.8
2019-05-30T00:39:14.541Z,9.85
2019-05-30T00:40:24.017Z,9.82
2019-05-30T00:41:33.963Z,9.81
2019-05-30T00:42:43.660Z,9.7
2019-05-30T00:43:53.616Z,9.73
2019-05-30T00:45:21.917Z,9.72
2019-05-30T00:46:31.612Z,9.66
2019-05-30T00:47:41.323Z,9.63
2019-05-30T00:48:51.289Z,9.63
2019-05-30T00:50:02.807Z,9.55
2019-05-30T00:51:13.768Z,9.64
2019-05-30T00:52:23.767Z,9.59
2019-05-30T00:53:33.726Z,9.62
2019-05-30T00:54:43.171Z,9.55
2019-05-30T00:55:53.134Z,9.62
2019-05-30T00:57:06.856Z,9.52
2019-05-30T00:58:16.961Z,9.49
2019-05-30T00:59:26.689Z,9.44
2019-05-30T01:00:48.073Z,9.47
2019-05-30T01:01:59.032Z,9.48
2019-05-30T01:03:13.529Z,9.42
2019-05-30T01:04:23.563Z,9.47
2019-05-30T01:05:33.520Z,9.49
2019-05-30T01:06:43.521Z,9.37
2019-05-30T01:07:53.474Z,9.42
2019-05-30T01:09:05.541Z,9.4
2019-05-30T01:10:15.519Z,9.42
2019-05-30T01:11:25.469Z,9.39
2019-05-30T01:12:35.430Z,9.42
2019-05-30T01:13:45.522Z,9.29
2019-05-30T01:14:56.847Z,9.3
2019-05-30T01:16:08.022Z,9.27
2019-05-30T01:17:17.716Z,9.26
2019-05-30T01:18:27.180Z,9.16
2019-05-30T01:19:37.161Z,9.22
2019-05-30T01:20:47.116Z,9.19
2019-05-30T01:21:57.176Z,9.19
2019-05-30T01:23:09.873Z,9.18
2019-05-30T01:24:19.588Z,9.21
2019-05-30T01:25:29.538Z,9.18
2019-05-30T01:26:39.229Z,9.13
2019-05-30T01:27:49.181Z,9.11
2019-05-30T01:28:59.724Z,9.09
2019-05-30T01:30:10.576Z,9.12
2019-05-30T01:31:20.532Z,9.05
2019-05-30T01:32:30.493Z,8.92
2019-05-30T01:33:40.456Z,8.96
2019-05-30T01:34:50.417Z,9
2019-05-30T01:36:01.393Z,8.86
2019-05-30T01:37:12.614Z,8.87
2019-05-30T01:38:22.053Z,8.87
2019-05-30T01:39:32.009Z,8.84
2019-05-30T01:40:41.961Z,8.86
2019-05-30T01:41:51.897Z,8.87
2019-05-30T01:43:03.989Z,8.86
2019-05-30T01:44:14.053Z,8.77
2019-05-30T01:45:23.744Z,8.81
2019-05-30T01:46:33.692Z,8.77
2019-05-30T01:47:43.391Z,8.69
2019-05-30T01:48:53.653Z,8.72
2019-05-30T01:50:06.375Z,8.66
2019-05-30T01:51:16.321Z,8.71
2019-05-30T01:52:26.281Z,8.68
2019-05-30T01:53:36.113Z,8.63
2019-05-30T01:54:45.554Z,8.71
2019-05-30T01:55:55.262Z,8.61
2019-05-30T01:57:07.353Z,8.68
2019-05-30T01:58:16.815Z,8.53
2019-05-30T01:59:26.511Z,8.66
2019-05-30T02:00:36.200Z,8.54
2019-05-30T02:01:45.903Z,8.49
2019-05-30T02:02:55.608Z,8.49
2019-05-30T02:04:09.316Z,8.5
2019-05-30T02:05:19.133Z,8.45
2019-05-30T02:06:29.088Z,8.34
2019-05-30T02:07:43.201Z,8.38
2019-05-30T02:08:52.893Z,8.34
2019-05-30T02:10:03.933Z,8.41
2019-05-30T02:11:15.481Z,8.31
2019-05-30T02:12:25.431Z,8.38
2019-05-30T02:13:35.381Z,8.34
2019-05-30T02:14:45.337Z,8.31
2019-05-30T02:15:55.295Z,8.28
2019-05-30T02:17:07.735Z,8.24
2019-05-30T02:18:17.780Z,8.21
2019-05-30T02:19:27.730Z,8.2
2019-05-30T02:20:37.674Z,8.21
2019-05-30T02:21:47.384Z,8.16
2019-05-30T02:22:57.336Z,8.17
2019-05-30T02:24:12.148Z,8.09
2019-05-30T02:25:22.367Z,8.08
2019-05-30T02:26:32.095Z,8.06
2019-05-30T02:27:41.803Z,8.06
2019-05-30T02:28:51.751Z,8.03
2019-05-30T02:30:03.881Z,8.06
2019-05-30T02:31:40.174Z,8.09
2019-05-30T02:32:50.033Z,7.99
2019-05-30T02:34:00.916Z,7.99
2019-05-30T02:35:17.825Z,8.05
2019-05-30T02:36:27.564Z,7.95
2019-05-30T02:37:37.541Z,8.01
2019-05-30T02:38:47.305Z,7.83
2019-05-30T02:40:00.166Z,7.93
2019-05-30T02:41:19.596Z,7.84
2019-05-30T02:42:29.563Z,7.85
2019-05-30T02:43:39.535Z,7.85
2019-05-30T02:44:49.267Z,7.85
2019-05-30T02:46:00.828Z,7.77
2019-05-30T02:47:14.527Z,7.83
2019-05-30T02:48:27.701Z,7.75
2019-05-30T02:49:37.415Z,7.74
2019-05-30T02:50:46.893Z,7.78
2019-05-30T02:51:56.854Z,7.81
2019-05-30T02:53:12.900Z,7.81
2019-05-30T02:54:22.244Z,7.81
2019-05-30T02:55:31.993Z,7.83
2019-05-30T02:56:41.693Z,7.74
2019-05-30T02:57:51.674Z,7.7
2019-05-30T02:59:03.397Z,7.72
2019-05-30T03:00:22.263Z,7.75
2019-05-30T03:01:31.990Z,7.7
2019-05-30T03:02:42.012Z,7.69
2019-05-30T03:03:51.981Z,7.69
2019-05-30T03:05:03.535Z,7.7
2019-05-30T03:06:19.415Z,7.77
2019-05-30T03:07:29.421Z,7.72
2019-05-30T03:08:39.393Z,7.61
2019-05-30T03:09:49.406Z,7.64
2019-05-30T03:10:59.171Z,7.67
2019-05-30T03:12:16.313Z,7.64
2019-05-30T03:13:26.255Z,7.7
2019-05-30T03:14:36.232Z,7.81
2019-05-30T03:15:45.975Z,7.56
2019-05-30T03:16:56.102Z,7.77
2019-05-30T03:18:15.066Z,7.78
2019-05-30T03:19:25.264Z,7.77
2019-05-30T03:20:35.235Z,7.75
2019-05-30T03:21:45.197Z,7.81
2019-05-30T03:22:55.181Z,7.77
2019-05-30T03:24:09.439Z,7.8
2019-05-30T03:25:22.012Z,7.83
2019-05-30T03:26:31.971Z,7.75
2019-05-30T03:27:41.702Z,7.78
2019-05-30T03:28:55.858Z,7.72
2019-05-30T03:30:27.151Z,7.69
2019-05-30T03:31:37.768Z,7.69
2019-05-30T03:33:41.912Z,7.7
2019-05-30T03:34:52.177Z,7.67
2019-05-30T03:36:06.127Z,7.78
2019-05-30T03:37:36.738Z,7.64
2019-05-30T03:38:46.545Z,7.64
2019-05-30T03:39:56.289Z,7.64
2019-05-30T03:41:09.233Z,7.61
2019-05-30T03:42:21.300Z,7.62
2019-05-30T03:43:31.006Z,7.66
2019-05-30T03:44:40.967Z,7.67
2019-05-30T03:45:50.953Z,7.66
2019-05-30T03:47:00.682Z,7.64
2019-05-30T03:48:18.537Z,7.64
2019-05-30T03:49:28.270Z,7.64
2019-05-30T03:50:38.229Z,7.74
2019-05-30T03:51:47.712Z,7.74
2019-05-30T03:52:57.660Z,7.72
2019-05-30T03:54:15.765Z,7.81
2019-05-30T03:55:25.901Z,7.72
2019-05-30T03:56:35.610Z,7.66
2019-05-30T03:57:45.632Z,7.75
2019-05-30T03:58:55.376Z,7.81
2019-05-30T04:00:05.984Z,7.75
2019-05-30T04:01:21.169Z,7.75
2019-05-30T04:02:30.641Z,7.81
2019-05-30T04:04:01.584Z,7.75
2019-05-30T04:05:19.273Z,7.74
2019-05-30T04:06:29.165Z,7.85
2019-05-30T04:07:39.175Z,7.91
2019-05-30T04:08:49.129Z,7.85
2019-05-30T04:09:59.080Z,7.9
2019-05-30T04:11:12.505Z,8.01
2019-05-30T04:12:24.841Z,7.99
2019-05-30T04:13:34.572Z,8.06
2019-05-30T04:14:44.596Z,8.02
2019-05-30T04:15:54.614Z,7.99
2019-05-30T04:17:04.591Z,8.05
2019-05-30T04:18:22.074Z,8.11
2019-05-30T04:19:32.046Z,8.16
2019-05-30T04:20:41.499Z,8.17
2019-05-30T04:21:51.463Z,8.2
2019-05-30T04:23:01.424Z,8.26
2019-05-30T04:24:16.065Z,8.18
2019-05-30T04:25:27.413Z,8.2
2019-05-30T04:26:37.377Z,8.21
2019-05-30T04:27:47.318Z,8.26
2019-05-30T04:28:57.268Z,8.27
2019-05-30T04:30:07.853Z,8.32
2019-05-30T04:31:22.091Z,8.36
2019-05-30T04:32:32.068Z,8.36
2019-05-30T04:33:42.048Z,8.39
2019-05-30T04:34:51.786Z,8.38
2019-05-30T04:36:01.749Z,8.38
2019-05-30T04:37:14.792Z,8.32
2019-05-30T04:38:26.631Z,8.5
2019-05-30T04:39:35.848Z,8.52
2019-05-30T04:40:45.560Z,8.59
2019-05-30T04:41:55.553Z,8.6
2019-05-30T04:43:05.526Z,8.66
2019-05-30T04:44:22.697Z,8.57
2019-05-30T04:45:33.365Z,8.66
2019-05-30T04:46:43.064Z,8.64
2019-05-30T04:47:53.046Z,8.81
2019-05-30T04:49:03.021Z,8.79
2019-05-30T04:50:16.554Z,8.92
2019-05-30T04:51:28.439Z,8.95
2019-05-30T04:52:38.398Z,9
2019-05-30T04:53:48.119Z,8.99
2019-05-30T04:54:58.100Z,9
2019-05-30T04:56:08.068Z,9
2019-05-30T04:57:29.009Z,9.19
2019-05-30T04:58:44.331Z,9.27
2019-05-30T04:59:54.288Z,9.21
2019-05-30T05:01:04.000Z,9.26
2019-05-30T05:02:18.117Z,9.3
2019-05-30T05:03:50.062Z,9.42
2019-05-30T05:05:00.042Z,9.49
2019-05-30T05:06:11.425Z,9.39
2019-05-30T05:07:26.234Z,9.47
2019-05-30T05:08:36.216Z,9.63
2019-05-30T05:09:46.175Z,9.55
2019-05-30T05:10:56.135Z,9.51
2019-05-30T05:12:05.860Z,9.62
2019-05-30T05:13:18.645Z,9.63
2019-05-30T05:14:29.963Z,9.7
2019-05-30T05:15:39.676Z,9.69
2019-05-30T05:16:49.620Z,9.64
2019-05-30T05:17:59.325Z,9.8
2019-05-30T05:19:08.823Z,9.88
2019-05-30T05:20:21.673Z,9.92
2019-05-30T05:21:31.392Z,9.87
2019-05-30T05:22:41.080Z,9.95
2019-05-30T05:23:50.776Z,9.99
2019-05-30T05:25:00.219Z,9.95
2019-05-30T05:26:10.186Z,10.05
2019-05-30T05:27:22.401Z,10.1
2019-05-30T05:28:32.406Z,10.07
2019-05-30T05:29:42.121Z,10.15
2019-05-30T05:30:51.819Z,10.23
2019-05-30T05:32:01.768Z,10.28
2019-05-30T05:33:11.719Z,10.27
2019-05-30T05:34:23.356Z,10.39
2019-05-30T05:35:33.311Z,10.39
2019-05-30T05:36:43.010Z,10.42
2019-05-30T05:37:52.466Z,10.51
2019-05-30T05:39:02.427Z,10.53
2019-05-30T05:40:12.446Z,10.51
2019-05-30T05:41:24.947Z,10.62
2019-05-30T05:42:36.240Z,10.62
2019-05-30T05:43:46.201Z,10.69
2019-05-30T05:44:55.893Z,10.69
2019-05-30T05:46:05.837Z,10.64
2019-05-30T05:47:16.373Z,10.79
2019-05-30T05:48:28.777Z,10.77
2019-05-30T05:49:38.579Z,10.8
2019-05-30T05:50:48.518Z,10.82
2019-05-30T05:51:58.461Z,10.86
2019-05-30T05:53:08.215Z,10.87
2019-05-30T05:54:19.246Z,10.9
2019-05-30T05:55:31.500Z,11
2019-05-30T05:56:41.440Z,10.95
2019-05-30T05:57:51.386Z,10.92
2019-05-30T05:59:01.342Z,10.87
2019-05-30T06:00:11.048Z,10.95
2019-05-30T06:01:25.293Z,10.98
2019-05-30T06:02:35.497Z,10.9
2019-05-30T06:03:44.959Z,11.12
2019-05-30T06:04:54.934Z,11.04
2019-05-30T06:06:04.391Z,11.13
2019-05-30T06:07:14.337Z,11.2
2019-05-30T06:08:24.121Z,11.22
2019-05-30T06:09:35.300Z,11.27
2019-05-30T06:10:45.268Z,11.35
2019-05-30T06:11:55.221Z,11.33
2019-05-30T06:13:05.178Z,11.41
2019-05-30T06:14:15.133Z,11.43
2019-05-30T06:15:25.629Z,11.45
2019-05-30T06:16:36.362Z,11.51
2019-05-30T06:17:46.329Z,11.49
2019-05-30T06:18:56.286Z,11.51
2019-05-30T06:20:06.255Z,11.56
2019-05-30T06:21:17.199Z,11.62
2019-05-30T06:22:28.635Z,11.7
2019-05-30T06:23:38.335Z,11.63
2019-05-30T06:24:50.849Z,11.7
2019-05-30T06:26:00.819Z,11.77
2019-05-30T06:27:10.571Z,11.86
2019-05-30T06:28:20.525Z,11.96
2019-05-30T06:29:31.522Z,11.97
2019-05-30T06:30:41.495Z,11.96
2019-05-30T06:31:50.958Z,12.11
2019-05-30T06:33:00.933Z,12.18
2019-05-30T06:34:10.385Z,12.14
2019-05-30T06:35:44.220Z,12.29
2019-05-30T06:36:53.940Z,12.35
2019-05-30T06:38:03.881Z,12.45
2019-05-30T06:39:13.873Z,12.53
2019-05-30T06:40:26.175Z,12.55
2019-05-30T06:41:39.736Z,12.51
2019-05-30T06:42:49.696Z,12.68
2019-05-30T06:43:59.706Z,12.75
2019-05-30T06:45:13.267Z,12.78
2019-05-30T06:46:24.439Z,12.87
2019-05-30T06:47:35.759Z,12.84
2019-05-30T06:48:45.464Z,12.87
2019-05-30T06:49:55.431Z,12.84
2019-05-30T06:51:05.393Z,12.86
2019-05-30T06:52:15.095Z,12.81
2019-05-30T06:53:27.500Z,12.93
2019-05-30T06:54:37.234Z,12.9
2019-05-30T06:55:46.675Z,12.94
2019-05-30T06:56:56.388Z,13.02
2019-05-30T06:58:06.370Z,13.01
2019-05-30T06:59:16.359Z,13.19
2019-05-30T07:00:27.992Z,13.21
2019-05-30T07:01:38.251Z,13.28
2019-05-30T07:02:48.443Z,13.36
2019-05-30T07:03:59.153Z,13.45
2019-05-30T07:05:12.265Z,13.33
2019-05-30T07:06:27.429Z,13.37
2019-05-30T07:07:40.799Z,13.46
2019-05-30T07:08:50.883Z,13.49
2019-05-30T07:10:00.835Z,13.54
2019-05-30T07:11:10.538Z,13.54
2019-05-30T07:12:20.228Z,13.64
2019-05-30T07:13:33.880Z,13.67
2019-05-30T07:14:43.605Z,13.79
2019-05-30T07:15:53.312Z,13.7
2019-05-30T07:17:03.280Z,13.89
2019-05-30T07:18:13.248Z,13.97
2019-05-30T07:19:23.339Z,13.98
2019-05-30T07:20:34.507Z,14.01
2019-05-30T07:21:43.713Z,14.05
2019-05-30T07:22:53.650Z,13.93
2019-05-30T07:24:03.638Z,13.97
2019-05-30T07:25:13.609Z,14.01
2019-05-30T07:26:23.813Z,14.01
2019-05-30T07:27:34.676Z,14.16
2019-05-30T07:28:44.629Z,14.19
2019-05-30T07:29:54.321Z,14.16
2019-05-30T07:31:04.020Z,14.25
2019-05-30T07:32:18.103Z,14.23
2019-05-30T07:33:30.385Z,14.25
2019-05-30T07:34:45.060Z,14.25
2019-05-30T07:36:11.337Z,14.33
2019-05-30T07:37:21.056Z,14.45
2019-05-30T07:38:34.618Z,14.48
2019-05-30T07:39:44.671Z,14.53
2019-05-30T07:40:54.656Z,14.62
2019-05-30T07:42:11.022Z,14.77
2019-05-30T07:43:20.516Z,14.85
2019-05-30T07:44:35.661Z,14.74
2019-05-30T07:45:58.101Z,14.86
2019-05-30T07:47:08.261Z,14.96
2019-05-30T07:48:18.223Z,14.96
2019-05-30T07:49:28.734Z,14.94
2019-05-30T07:50:41.133Z,14.9
2019-05-30T07:51:51.095Z,14.85
2019-05-30T07:53:01.088Z,15.08
2019-05-30T07:54:10.281Z,15.08
2019-05-30T07:55:19.749Z,15.12
2019-05-30T07:56:29.905Z,15.27
2019-05-30T07:57:45.775Z,15.17
2019-05-30T07:58:55.476Z,15.3
2019-05-30T08:00:05.416Z,15.18
2019-05-30T08:01:15.162Z,15.27
2019-05-30T08:02:24.620Z,15.44
2019-05-30T08:03:35.303Z,15.45
2019-05-30T08:04:46.969Z,15.45
2019-05-30T08:05:56.794Z,15.52
2019-05-30T08:07:06.506Z,15.51
2019-05-30T08:08:16.234Z,15.48
2019-05-30T08:09:26.794Z,15.43
2019-05-30T08:10:38.825Z,15.62
2019-05-30T08:11:48.778Z,15.57
2019-05-30T08:12:58.722Z,15.5
2019-05-30T08:14:08.422Z,15.51
2019-05-30T08:15:18.380Z,15.5
2019-05-30T08:16:29.453Z,15.62
2019-05-30T08:17:44.004Z,15.7
2019-05-30T08:18:53.970Z,15.76
2019-05-30T08:20:03.679Z,15.84
2019-05-30T08:21:13.640Z,15.9
2019-05-30T08:22:23.335Z,16.02
2019-05-30T08:23:34.424Z,16.02
2019-05-30T08:24:44.393Z,16.08
2019-05-30T08:25:54.091Z,16.09
2019-05-30T08:27:03.561Z,16.13
2019-05-30T08:28:13.265Z,16.26
2019-05-30T08:29:22.968Z,16.26
2019-05-30T08:30:34.454Z,16.09
2019-05-30T08:31:44.528Z,16.26
2019-05-30T08:32:54.471Z,16.24
2019-05-30T08:34:04.189Z,16.32
2019-05-30T08:35:13.650Z,16.29
2019-05-30T08:36:23.358Z,16.4
2019-05-30T08:37:35.239Z,16.36
2019-05-30T08:38:48.051Z,16.41
2019-05-30T08:39:57.907Z,16.46
2019-05-30T08:41:07.608Z,16.58
2019-05-30T08:42:17.303Z,16.69
2019-05-30T08:43:27.005Z,16.73
2019-05-30T08:44:38.224Z,16.69
2019-05-30T08:45:48.187Z,16.65
2019-05-30T08:46:58.189Z,16.65
2019-05-30T08:48:07.884Z,16.76
2019-05-30T08:49:17.639Z,16.77
2019-05-30T08:50:27.092Z,16.82
2019-05-30T08:51:38.965Z,16.8
2019-05-30T08:52:48.674Z,16.8
2019-05-30T08:53:58.380Z,16.77
2019-05-30T08:55:08.111Z,16.89
2019-05-30T08:56:18.306Z,16.99
2019-05-30T08:57:28.263Z,17.12
2019-05-30T08:58:39.333Z,17.16
2019-05-30T08:59:49.523Z,17.27
2019-05-30T09:00:58.973Z,17.27
2019-05-30T09:02:08.689Z,17.31
2019-05-30T09:03:18.418Z,17.49
2019-05-30T09:04:27.875Z,17.68
2019-05-30T09:05:38.672Z,17.87
2019-05-30T09:07:09.579Z,18.68
2019-05-30T09:08:19.631Z,19.15
2019-05-30T09:09:29.348Z,19.63
2019-05-30T09:10:42.618Z,19.93
2019-05-30T09:11:54.070Z,19.99
2019-05-30T09:13:04.037Z,20.26
2019-05-30T09:14:14.013Z,20.24
2019-05-30T09:15:26.782Z,20.56
2019-05-30T09:16:36.763Z,21.13
2019-05-30T09:17:49.254Z,21.29
2019-05-30T09:18:58.960Z,21.41
2019-05-30T09:20:08.909Z,21.3
2019-05-30T09:21:18.874Z,21.47
2019-05-30T09:22:28.334Z,21.51
2019-05-30T09:23:42.071Z,21.72
2019-05-30T09:24:54.041Z,22.41
2019-05-30T09:26:04.001Z,22.61
2019-05-30T09:27:13.460Z,22.68
2019-05-30T09:28:23.417Z,23.04
2019-05-30T09:29:33.371Z,23.69
2019-05-30T09:30:48.910Z,23.39
2019-05-30T09:31:58.626Z,23.62
2019-05-30T09:33:08.600Z,23.91
2019-05-30T09:34:18.384Z,24.26
2019-05-30T09:35:28.121Z,24.4
2019-05-30T09:36:39.368Z,24.65
2019-05-30T09:37:51.990Z,25.21
2019-05-30T09:39:01.967Z,25.41
2019-05-30T09:40:11.951Z,25.78
2019-05-30T09:41:21.675Z,25.93
2019-05-30T09:42:31.652Z,26.24
2019-05-30T09:43:44.707Z,26.23
2019-05-30T09:44:56.989Z,25.68
2019-05-30T09:46:07.034Z,25.85
2019-05-30T09:47:17.003Z,25.67
2019-05-30T09:48:26.797Z,25.83
2019-05-30T09:49:36.825Z,26.31
2019-05-30T09:50:51.204Z,26.42
2019-05-30T09:52:01.181Z,25.52
2019-05-30T09:53:11.144Z,25.43
2019-05-30T09:54:21.147Z,25.71
2019-05-30T09:55:31.115Z,25.98
2019-05-30T09:56:42.019Z,26.01
2019-05-30T09:57:54.441Z,26.15
2019-05-30T09:59:04.397Z,25.81
2019-05-30T10:00:14.104Z,25.44
2019-05-30T10:01:24.245Z,25.7
2019-05-30T10:02:34.020Z,25.88
2019-05-30T10:03:46.470Z,26.42
2019-05-30T10:04:57.810Z,26.33
2019-05-30T10:06:07.524Z,26.37
2019-05-30T10:07:33.582Z,26.44
2019-05-30T10:08:44.255Z,26.01
2019-05-30T10:09:58.372Z,25.98
2019-05-30T10:11:07.852Z,25.78
2019-05-30T10:12:21.416Z,25.78
2019-05-30T10:13:31.148Z,25.74
2019-05-30T10:14:41.134Z,26.16
2019-05-30T10:15:54.963Z,26.64
2019-05-30T10:17:04.931Z,27.04
2019-05-30T10:18:14.645Z,27.22
2019-05-30T10:19:24.629Z,27.05
2019-05-30T10:20:34.349Z,26.37
2019-05-30T10:21:45.445Z,26.08
2019-05-30T10:23:02.861Z,26.15
2019-05-30T10:24:13.651Z,26.45
2019-05-30T10:25:23.906Z,26.7
2019-05-30T10:26:34.052Z,27.04
2019-05-30T10:27:46.171Z,27.57
2019-05-30T10:28:59.988Z,27.16
2019-05-30T10:30:09.982Z,27.61
2019-05-30T10:31:19.965Z,27.95
2019-05-30T10:32:29.668Z,27.94
2019-05-30T10:33:39.630Z,28.1
2019-05-30T10:34:54.055Z,28.2
2019-05-30T10:36:03.964Z,28.52
2019-05-30T10:37:13.669Z,28.7
2019-05-30T10:38:24.955Z,28.38
2019-05-30T10:39:34.683Z,28.75
2019-05-30T10:40:45.613Z,28.78
2019-05-30T10:41:57.958Z,28.7
2019-05-30T10:43:10.999Z,28.78
2019-05-30T10:44:20.709Z,28.78
2019-05-30T10:45:30.694Z,29.05
2019-05-30T10:46:43.863Z,28.67
2019-05-30T10:47:59.872Z,28.72
2019-05-30T10:49:09.901Z,29.09
2019-05-30T10:50:19.620Z,28.89
2019-05-30T10:51:29.575Z,29.15
2019-05-30T10:52:39.541Z,29.3
2019-05-30T10:53:55.726Z,29.27
2019-05-30T10:55:05.739Z,29.47
2019-05-30T10:56:15.492Z,29.69
2019-05-30T10:57:25.454Z,29.5
2019-05-30T10:58:35.423Z,28.74
2019-05-30T10:59:45.934Z,28.49
2019-05-30T11:01:00.569Z,28.56
2019-05-30T11:02:10.539Z,28.52
2019-05-30T11:03:20.514Z,28.82
2019-05-30T11:04:30.246Z,28.53
2019-05-30T11:05:40.213Z,28.47
2019-05-30T11:07:14.378Z,28.65
2019-05-30T11:08:24.342Z,28.46
2019-05-30T11:09:34.323Z,28.34
2019-05-30T11:10:44.301Z,28.77
2019-05-30T11:11:55.536Z,28.97
2019-05-30T11:13:10.809Z,29.39
2019-05-30T11:14:20.787Z,29.12
2019-05-30T11:15:30.768Z,29.15
2019-05-30T11:16:40.477Z,29.28
2019-05-30T11:17:53.369Z,29.07
2019-05-30T11:19:10.062Z,29.07
2019-05-30T11:20:20.069Z,29.2
2019-05-30T11:21:29.823Z,29.35
2019-05-30T11:22:39.775Z,29.3
2019-05-30T11:23:52.594Z,28.78
2019-05-30T11:25:04.498Z,28.68
2019-05-30T11:26:14.499Z,28.75
2019-05-30T11:27:23.965Z,29.06
2019-05-30T11:28:33.443Z,29.69
2019-05-30T11:29:43.210Z,29.81
2019-05-30T11:30:55.213Z,29.67
2019-05-30T11:32:10.029Z,29.5
2019-05-30T11:33:19.999Z,29.76
2019-05-30T11:34:29.967Z,29.76
2019-05-30T11:35:39.701Z,29.81
2019-05-30T11:36:50.704Z,29.9
2019-05-30T11:38:01.981Z,30.13
2019-05-30T11:39:11.955Z,30.16
2019-05-30T11:40:21.671Z,29.87
2019-05-30T11:41:31.622Z,29.95
2019-05-30T11:42:41.353Z,30.11
2019-05-30T11:43:51.781Z,29.59
2019-05-30T11:45:04.749Z,29.22
2019-05-30T11:46:14.726Z,28.65
2019-05-30T11:47:24.678Z,28.45
2019-05-30T11:48:34.419Z,28.56
2019-05-30T11:49:44.428Z,28.87
2019-05-30T11:50:56.426Z,29.13
2019-05-30T11:52:07.712Z,29.42
2019-05-30T11:53:17.681Z,29.8
2019-05-30T11:54:27.655Z,29.79
2019-05-30T11:55:37.716Z,30.18
2019-05-30T11:56:47.679Z,30.16
2019-05-30T11:58:00.808Z,30.13
2019-05-30T11:59:10.516Z,30.29
2019-05-30T12:00:20.491Z,30.06
2019-05-30T12:01:30.209Z,29.87
2019-05-30T12:02:40.194Z,29.96
2019-05-30T12:03:50.504Z,30.27
2019-05-30T12:05:01.386Z,30.43
2019-05-30T12:06:11.357Z,30.43
2019-05-30T12:07:37.829Z,30.43
2019-05-30T12:08:47.800Z,30.43
2019-05-30T12:09:59.567Z,30.23
2019-05-30T12:11:09.575Z,30.43
2019-05-30T12:12:19.545Z,30.76
2019-05-30T12:13:28.989Z,30.2
2019-05-30T12:14:38.714Z,29.76
2019-05-30T12:15:48.510Z,29.37
2019-05-30T12:17:00.054Z,29.59
2019-05-30T12:18:09.824Z,29.22
2019-05-30T12:19:19.796Z,29.52
2019-05-30T12:20:29.763Z,30.05
2019-05-30T12:21:38.984Z,29.81
2019-05-30T12:22:48.711Z,29.67
2019-05-30T12:24:00.505Z,29.62
2019-05-30T12:25:09.963Z,29.81
2019-05-30T12:26:19.676Z,30.24
2019-05-30T12:27:29.624Z,30.43
2019-05-30T12:28:39.355Z,30.06
2019-05-30T12:29:49.327Z,29.89
2019-05-30T12:31:08.821Z,29.57
2019-05-30T12:32:18.787Z,29.4
2019-05-30T12:33:28.771Z,28.97
2019-05-30T12:34:38.768Z,28.93
2019-05-30T12:35:48.488Z,28.64
2019-05-30T12:37:00.927Z,28.68
2019-05-30T12:38:11.655Z,28.77
2019-05-30T12:39:21.685Z,28.93
2019-05-30T12:40:31.649Z,28.89
2019-05-30T12:41:41.399Z,28.78
2019-05-30T12:42:54.298Z,28.94
2019-05-30T12:44:10.238Z,29.13
2019-05-30T12:45:19.950Z,29.03
2019-05-30T12:46:29.657Z,28.83
2019-05-30T12:47:39.824Z,28.83
2019-05-30T12:48:49.779Z,28.87
2019-05-30T12:50:01.933Z,29.09
2019-05-30T12:51:11.907Z,29.39
2019-05-30T12:52:21.611Z,29.74
2019-05-30T12:53:31.583Z,29.9
2019-05-30T12:54:41.295Z,30.13
2019-05-30T12:55:51.261Z,30.11
2019-05-30T12:57:03.387Z,29.94
2019-05-30T12:58:14.393Z,29.34
2019-05-30T12:59:24.102Z,28.78
2019-05-30T13:00:34.088Z,28.72
2019-05-30T13:01:44.044Z,28.89
2019-05-30T13:02:54.631Z,29.1
2019-05-30T13:04:07.248Z,29.22
2019-05-30T13:05:17.356Z,29.43
2019-05-30T13:06:27.311Z,29.42
2019-05-30T13:07:37.282Z,28.97
2019-05-30T13:08:47.256Z,29.03
2019-05-30T13:09:57.461Z,28.8
2019-05-30T13:11:08.730Z,28.5
2019-05-30T13:12:18.464Z,28.49
2019-05-30T13:13:28.429Z,28.5
2019-05-30T13:14:38.138Z,28.38
2019-05-30T13:15:47.846Z,28.2
2019-05-30T13:16:57.850Z,28.33
2019-05-30T13:18:09.616Z,28.3
2019-05-30T13:19:19.622Z,28.46
2019-05-30T13:20:29.585Z,28.52
2019-05-30T13:21:39.318Z,28.18
2019-05-30T13:22:49.284Z,28.22
2019-05-30T13:24:01.377Z,28.15
2019-05-30T13:25:11.723Z,28.25
2019-05-30T13:26:21.722Z,28.37
2019-05-30T13:27:31.437Z,28.43
2019-05-30T13:28:40.922Z,28.68
2019-05-30T13:29:50.950Z,28.65
2019-05-30T13:31:02.527Z,28.71
2019-05-30T13:32:12.503Z,28.64
2019-05-30T13:33:22.225Z,28.65
2019-05-30T13:34:32.194Z,28.75
2019-05-30T13:35:42.154Z,29.06
2019-05-30T13:36:51.854Z,29.13
2019-05-30T13:38:01.639Z,28.82
2019-05-30T13:39:12.893Z,28.93
2019-05-30T13:40:30.093Z,29.06
2019-05-30T13:41:40.047Z,29.34
2019-05-30T13:42:49.754Z,29.13
2019-05-30T13:44:03.185Z,28.87
2019-05-30T13:45:17.301Z,29.07
2019-05-30T13:46:27.258Z,29.16
2019-05-30T13:47:37.259Z,29.16
2019-05-30T13:48:47.005Z,29.42
2019-05-30T13:49:57.005Z,29.55
2019-05-30T13:51:09.663Z,29.86
2019-05-30T13:52:19.627Z,29.8
2019-05-30T13:53:29.363Z,29.68
2019-05-30T13:54:39.361Z,29.35
2019-05-30T13:55:49.339Z,29.42
2019-05-30T13:56:59.390Z,29.34
2019-05-30T13:58:12.221Z,29.43
2019-05-30T13:59:21.952Z,29.18
2019-05-30T14:00:31.931Z,29.22
2019-05-30T14:01:41.908Z,29.44
2019-05-30T14:02:51.891Z,29.28
2019-05-30T14:04:03.057Z,28.77
2019-05-30T14:05:15.307Z,28.49
2019-05-30T14:06:25.046Z,28.47
2019-05-30T14:07:34.772Z,28.49
2019-05-30T14:08:46.815Z,28.34
2019-05-30T14:09:58.412Z,27.93
2019-05-30T14:11:10.721Z,27.88
2019-05-30T14:12:20.850Z,28
2019-05-30T14:13:30.629Z,28.09
2019-05-30T14:14:40.344Z,27.98
2019-05-30T14:15:50.057Z,27.88
2019-05-30T14:17:00.832Z,27.88
2019-05-30T14:18:13.560Z,28.09
2019-05-30T14:19:25.148Z,28.27
2019-05-30T14:20:34.967Z,28.27
2019-05-30T14:21:44.948Z,28.52
2019-05-30T14:22:54.993Z,28.64
2019-05-30T14:24:07.349Z,28.57
2019-05-30T14:25:17.433Z,28.77
2019-05-30T14:26:27.413Z,28.92
2019-05-30T14:27:37.384Z,28.77
2019-05-30T14:28:47.370Z,28.16
2019-05-30T14:29:57.075Z,27.93
2019-05-30T14:31:12.230Z,28.01
2019-05-30T14:32:22.908Z,27.98
2019-05-30T14:33:32.890Z,27.86
2019-05-30T14:34:42.618Z,27.68
2019-05-30T14:35:52.599Z,27.83
2019-05-30T14:37:02.418Z,27.73
2019-05-30T14:38:13.655Z,27.71
2019-05-30T14:39:23.617Z,27.57
2019-05-30T14:40:33.623Z,26.74
2019-05-30T14:41:43.326Z,26.78
2019-05-30T14:42:53.292Z,26.82
2019-05-30T14:44:03.138Z,26.96
2019-05-30T14:45:14.530Z,26.86
2019-05-30T14:46:24.707Z,26.89
2019-05-30T14:47:34.705Z,26.59
2019-05-30T14:48:44.436Z,26.49
2019-05-30T14:49:53.916Z,26.71
2019-05-30T14:51:04.545Z,26.89
2019-05-30T14:52:17.160Z,26.97
2019-05-30T14:53:27.177Z,27.11
2019-05-30T14:54:36.892Z,27.13
2019-05-30T14:55:46.852Z,27
2019-05-30T14:56:56.835Z,27.15
2019-05-30T14:58:07.401Z,26.85
2019-05-30T14:59:19.620Z,26.89
2019-05-30T15:00:29.400Z,27.18
2019-05-30T15:01:39.137Z,27.33
2019-05-30T15:02:48.842Z,27.43
2019-05-30T15:03:58.615Z,27.58
2019-05-30T15:05:11.359Z,27.37
2019-05-30T15:06:22.748Z,27.52
2019-05-30T15:07:32.478Z,27.52
2019-05-30T15:08:42.441Z,27.72
2019-05-30T15:09:52.411Z,27.83
2019-05-30T15:11:02.394Z,27.38
2019-05-30T15:12:13.281Z,27.22
2019-05-30T15:13:24.571Z,27.05
2019-05-30T15:14:34.556Z,26.93
2019-05-30T15:15:44.566Z,27.08
2019-05-30T15:16:54.525Z,27.07
2019-05-30T15:18:05.103Z,26.93
2019-05-30T15:19:16.317Z,26.85
2019-05-30T15:20:26.489Z,26.92
2019-05-30T15:21:36.443Z,26.88
2019-05-30T15:22:46.419Z,26.89
2019-05-30T15:23:56.371Z,27.11
2019-05-30T15:25:05.872Z,27.1
2019-05-30T15:26:17.254Z,27.03
2019-05-30T15:27:26.969Z,26.74
2019-05-30T15:28:36.972Z,26.53